Sevilla, España

1:24 PM CEST en Mayo 25, 2015 (GMT +0200)
San Pablo | | Change Station
CLOSE
Current Station
Aeropuerto
Location: Sevilla,
Altura: 102 ft
Estaciones meteorológicas cercanas

Alt 102 ft 37.42 °N, 5.89 °W | Updated 24 minutes ago

Partly Cloudy
Parcialmente nublado
75 ° F
Sensación térmica 75 ° F
N
6
Viento Variable Viento desde Variable

Hoy
Alta -- | Baja -- ° F
--% Posibilidad de precipitaciones
Ayer
Alta -- | Baja -- ° F
Precip. -- pul
7:07 AM 9:33 PM
Creciente, 48% visible
Presión 30.01 pul
Visibilidad 6.2 Millas
Nubes Baja 4500 ft
Punto de rocío 46 ° F
Humedad 36%
Precipitaciones 0.00 pul
Espesor de la nieve No disponible.
UV 11 de una escala de 12
Polen No disponible.
Calidad del aire No disponible.
Flu Activity No disponible.
METAR LEZL 251100Z VRB05KT 9999 FEW045 24/08 Q1016 NOSIG

More Conditions Fewer Conditions

Presión 30.01 pul
Visibilidad 6.2 Millas
Nubes Baja 4500 ft
Punto de rocío 46 ° F
Humedad 36%
Precipitaciones 0.00 pul
Espesor de la nieve No disponible.
UV 11 de una escala de 12
Polen No disponible.
Calidad del aire No disponible.
Flu Activity No disponible.
METAR LEZL 251100Z VRB05KT 9999 FEW045 24/08 Q1016 NOSIG

More Conditions Fewer Conditions

10-Day Weather Forecast

Almanac

Astronomía

May. 25, 2015 Salida Puesta
Hora real
Crepúsculo civil
Crepúsculo náutico
Crepúsculo astronómico
Luna
Horas de luz
Horas de luz
Tomorrow will be .
, % of the Moon is Illuminated

Extremos de hoy

Máximos del país Bajas del país

Community

WunderPhotos

Upload Photos

1,823,980 ¡fotos cargadas!

WunderBlogs® & News

Nearby

Calidad del aire

  Calidad del aire Índice AQ Contaminante
Not available.

Grosos de nieve

Estación Profundido Altura

Actividad de terremotos

Ciudad Distance Mag. Tiempo y dato
Magnitud mínima muestra es 2,5.

Temperaturas de aguas costeras

Lugar Temperatura

Stations

Estaciones meteorológicas cercanas

Ubicación de la estación Temp. Vientos helados Punto de rocío Humedad Viento Precip. Alt Actualizado Tipo